createdAt,value
2022-08-25T00:01:59.989Z,72.41
2022-08-25T00:04:29.518Z,72.79
2022-08-25T00:07:02.106Z,72.50
2022-08-25T00:09:31.475Z,71.90
2022-08-25T00:11:58.938Z,72.62
2022-08-25T00:14:33.482Z,72.73
2022-08-25T00:17:01.496Z,73.35
2022-08-25T00:19:32.117Z,72.15
2022-08-25T00:22:00.567Z,72.27
2022-08-25T00:24:28.311Z,71.77
2022-08-25T00:26:56.920Z,71.31
2022-08-25T00:29:26.158Z,71.30
2022-08-25T00:31:54.919Z,71.66
2022-08-25T00:34:25.762Z,72.58
2022-08-25T00:36:53.199Z,72.26
2022-08-25T00:39:21.629Z,73.15
2022-08-25T00:41:49.581Z,72.59
2022-08-25T00:44:19.898Z,72.19
2022-08-25T00:46:49.508Z,72.08
2022-08-25T00:49:32.083Z,72.13
2022-08-25T00:52:13.502Z,71.60
2022-08-25T00:54:46.168Z,71.64
2022-08-25T00:57:15.049Z,71.62
2022-08-25T00:59:43.418Z,71.65
2022-08-25T01:02:13.780Z,72.43
2022-08-25T01:04:48.648Z,72.13
2022-08-25T01:07:18.645Z,72.11
2022-08-25T01:09:46.628Z,71.30
2022-08-25T01:12:14.009Z,72.41
2022-08-25T01:14:41.362Z,72.31
2022-08-25T01:17:09.570Z,71.96
2022-08-25T01:19:37.461Z,71.23
2022-08-25T01:22:05.688Z,70.97
2022-08-25T01:24:50.817Z,71.62
2022-08-25T01:27:18.252Z,71.75
2022-08-25T01:29:45.885Z,71.28
2022-08-25T01:32:14.190Z,71.68
2022-08-25T01:34:43.084Z,72.76
2022-08-25T01:37:13.208Z,72.70
2022-08-25T01:39:41.513Z,72.84
2022-08-25T01:42:24.597Z,72.67
2022-08-25T01:44:52.246Z,72.74
2022-08-25T01:47:19.656Z,72.50
2022-08-25T01:49:47.035Z,73.07
2022-08-25T01:52:33.252Z,72.84
2022-08-25T01:55:00.721Z,73.04
2022-08-25T01:57:30.256Z,72.24
2022-08-25T01:59:58.562Z,71.90
2022-08-25T02:02:26.261Z,72.10
2022-08-25T02:04:53.986Z,72.19
2022-08-25T02:07:22.431Z,72.39
2022-08-25T02:09:49.788Z,70.97
2022-08-25T02:12:17.639Z,71.94
2022-08-25T02:14:45.197Z,71.96
2022-08-25T02:17:12.557Z,72.07
2022-08-25T02:19:40.180Z,72.92
2022-08-25T02:22:07.557Z,72.39
2022-08-25T02:24:35.104Z,72.22
2022-08-25T02:27:04.045Z,72.44
2022-08-25T02:29:31.433Z,72.60
2022-08-25T02:31:58.940Z,71.91
2022-08-25T02:34:26.540Z,72.42
2022-08-25T02:36:53.957Z,72.06
2022-08-25T02:39:21.332Z,71.72
2022-08-25T02:41:48.977Z,71.23
2022-08-25T02:44:16.351Z,71.18
2022-08-25T02:46:43.771Z,71.33
2022-08-25T02:49:11.418Z,71.19
2022-08-25T02:51:38.904Z,71.04
2022-08-25T02:54:07.093Z,70.04
2022-08-25T02:56:35.132Z,70.89
2022-08-25T02:59:02.894Z,70.91
2022-08-25T03:01:31.224Z,70.81
2022-08-25T03:03:59.101Z,71.53
2022-08-25T03:06:27.975Z,71.45
2022-08-25T03:08:55.374Z,71.09
2022-08-25T03:11:24.000Z,71.36
2022-08-25T03:13:51.385Z,70.81
2022-08-25T03:16:18.907Z,71.03
2022-08-25T03:18:46.642Z,71.00
2022-08-25T03:21:14.198Z,70.76
2022-08-25T03:23:43.866Z,70.80
2022-08-25T03:26:30.068Z,71.03
2022-08-25T03:28:57.324Z,70.44
2022-08-25T03:31:26.861Z,70.25
2022-08-25T03:33:54.349Z,71.20
2022-08-25T03:36:21.725Z,71.52
2022-08-25T03:38:49.408Z,73.36
2022-08-25T03:41:29.106Z,72.35
2022-08-25T03:43:56.994Z,71.91
2022-08-25T03:46:26.675Z,71.65
2022-08-25T03:48:54.046Z,71.20
2022-08-25T03:51:25.582Z,70.98
2022-08-25T03:53:53.047Z,71.43
2022-08-25T03:56:20.487Z,71.06
2022-08-25T03:58:48.237Z,71.55
2022-08-25T04:01:15.880Z,71.83
2022-08-25T04:03:46.206Z,71.19
2022-08-25T04:06:13.676Z,71.28
2022-08-25T04:08:41.044Z,71.88
2022-08-25T04:11:13.950Z,71.65
2022-08-25T04:13:42.402Z,69.88
2022-08-25T04:16:12.822Z,69.31
2022-08-25T04:18:43.156Z,70.77
2022-08-25T04:21:10.981Z,71.41
2022-08-25T04:23:40.262Z,70.71
2022-08-25T04:26:12.278Z,70.39
2022-08-25T04:28:39.973Z,70.83
2022-08-25T04:31:11.308Z,69.29
2022-08-25T04:33:38.742Z,69.32
2022-08-25T04:36:11.963Z,68.76
2022-08-25T04:38:40.272Z,69.46
2022-08-25T04:41:08.457Z,68.75
2022-08-25T04:43:35.997Z,69.82
2022-08-25T04:46:11.326Z,69.98
2022-08-25T04:48:40.029Z,69.01
2022-08-25T04:51:08.410Z,69.65
2022-08-25T04:53:36.327Z,69.79
2022-08-25T04:56:08.256Z,69.27
2022-08-25T04:58:36.129Z,70.50
2022-08-25T05:01:08.620Z,70.02
2022-08-25T05:03:36.266Z,69.00
2022-08-25T05:06:04.253Z,68.28
2022-08-25T05:08:32.106Z,68.68
2022-08-25T05:10:59.927Z,68.28
2022-08-25T05:13:30.595Z,67.01
2022-08-25T05:16:00.252Z,67.11
2022-08-25T05:18:29.922Z,68.24
2022-08-25T05:20:59.486Z,66.28
2022-08-25T05:23:26.858Z,66.82
2022-08-25T05:25:54.296Z,66.21
2022-08-25T05:28:21.972Z,67.12
2022-08-25T05:30:50.145Z,66.81
2022-08-25T05:33:18.369Z,67.02
2022-08-25T05:35:46.049Z,68.02
2022-08-25T05:38:15.406Z,66.18
2022-08-25T05:40:43.138Z,66.31
2022-08-25T05:43:10.755Z,66.30
2022-08-25T05:45:39.298Z,66.74
2022-08-25T05:48:06.996Z,66.53
2022-08-25T05:50:34.789Z,67.09
2022-08-25T05:53:02.365Z,66.99
2022-08-25T05:55:29.774Z,66.44
2022-08-25T05:57:57.383Z,65.73
2022-08-25T06:00:24.741Z,65.25
2022-08-25T06:02:52.396Z,64.72
2022-08-25T06:05:21.777Z,63.66
2022-08-25T06:07:50.515Z,62.33
2022-08-25T06:10:19.040Z,62.38
2022-08-25T06:12:46.541Z,61.84
2022-08-25T06:15:17.488Z,61.48
2022-08-25T06:17:45.229Z,62.10
2022-08-25T06:20:16.898Z,61.17
2022-08-25T06:22:44.484Z,61.70
2022-08-25T06:25:13.742Z,61.18
2022-08-25T06:27:41.140Z,61.25
2022-08-25T06:30:10.216Z,59.35
2022-08-25T06:32:39.433Z,58.84
2022-08-25T06:35:08.708Z,59.20
2022-08-25T06:37:36.177Z,58.39
2022-08-25T06:40:04.757Z,58.96
2022-08-25T06:42:32.200Z,58.73
2022-08-25T06:44:59.532Z,57.53
2022-08-25T06:47:27.278Z,57.99
2022-08-25T06:49:54.673Z,57.07
2022-08-25T06:52:22.047Z,57.10
2022-08-25T06:54:56.942Z,56.48
2022-08-25T06:57:24.355Z,56.14
2022-08-25T06:59:53.449Z,56.64
2022-08-25T07:02:21.859Z,55.69
2022-08-25T07:04:49.805Z,55.12
2022-08-25T07:07:17.413Z,55.25
2022-08-25T07:09:45.035Z,55.08
2022-08-25T07:12:12.436Z,54.95
2022-08-25T07:14:40.040Z,53.06
2022-08-25T07:17:23.577Z,54.67
2022-08-25T07:19:53.041Z,54.97
2022-08-25T07:22:25.346Z,53.73
2022-08-25T07:24:52.737Z,54.44
2022-08-25T07:27:20.496Z,52.27
2022-08-25T07:29:50.071Z,51.90
2022-08-25T07:32:17.442Z,52.51
2022-08-25T07:35:03.492Z,52.19
2022-08-25T07:37:47.935Z,54.15
2022-08-25T07:40:17.981Z,54.18
2022-08-25T07:42:45.887Z,52.96
2022-08-25T07:45:13.682Z,50.07
2022-08-25T07:47:43.019Z,51.44
2022-08-25T07:50:12.034Z,49.77
2022-08-25T07:52:40.761Z,48.33
2022-08-25T07:55:11.140Z,48.05
2022-08-25T07:57:42.193Z,48.96
2022-08-25T08:00:11.078Z,49.24
2022-08-25T08:02:39.757Z,48.14
2022-08-25T08:05:09.707Z,46.14
2022-08-25T08:07:43.389Z,47.15
2022-08-25T08:10:42.350Z,46.47
2022-08-25T08:13:00.560Z,44.98
2022-08-25T08:15:29.841Z,47.21
2022-08-25T08:18:00.461Z,44.34
2022-08-25T08:20:28.845Z,43.77
2022-08-25T08:22:56.557Z,44.59
2022-08-25T08:25:26.459Z,43.21
2022-08-25T08:27:55.285Z,41.93
2022-08-25T08:30:26.373Z,38.39
2022-08-25T08:33:11.337Z,35.26
2022-08-25T08:35:42.825Z,31.28
2022-08-25T08:38:16.173Z,28.94
2022-08-25T08:41:09.639Z,25.77
2022-08-25T08:43:37.296Z,25.39
2022-08-25T08:46:07.535Z,22.60
2022-08-25T08:48:40.741Z,21.12
2022-08-25T08:51:23.130Z,20.87
2022-08-25T08:54:01.347Z,20.02
2022-08-25T08:56:30.925Z,19.96
2022-08-25T08:59:05.107Z,18.11
2022-08-25T09:01:36.100Z,17.33
2022-08-25T09:04:14.580Z,19.56
2022-08-25T09:06:48.001Z,24.10
2022-08-25T09:09:30.039Z,23.75
2022-08-25T09:12:07.141Z,27.90
2022-08-25T09:14:54.067Z,27.91
2022-08-25T09:17:30.647Z,28.31
2022-08-25T09:20:34.917Z,31.42
2022-08-25T09:23:27.897Z,33.68
2022-08-25T09:26:04.045Z,32.67
2022-08-25T09:28:40.934Z,33.82
2022-08-25T09:31:26.358Z,33.92
2022-08-25T09:33:57.767Z,36.49
2022-08-25T09:36:25.636Z,37.20
2022-08-25T09:38:53.009Z,32.98
2022-08-25T09:41:42.315Z,29.51
2022-08-25T09:44:24.167Z,26.69
2022-08-25T09:47:17.871Z,28.02
2022-08-25T09:49:47.666Z,23.84
2022-08-25T09:52:34.205Z,22.17
2022-08-25T09:55:22.606Z,21.62
2022-08-25T09:57:56.786Z,22.77
2022-08-25T10:00:33.547Z,22.35
2022-08-25T10:03:18.422Z,19.57
2022-08-25T10:05:58.936Z,17.92
2022-08-25T10:08:39.517Z,16.80
2022-08-25T10:11:10.262Z,17.88
2022-08-25T10:13:40.690Z,16.82
2022-08-25T10:16:24.435Z,16.63
2022-08-25T10:19:02.001Z,19.52
2022-08-25T10:21:29.411Z,17.14
2022-08-25T10:23:57.391Z,17.72
2022-08-25T10:26:44.921Z,18.68
2022-08-25T10:29:40.930Z,19.60
2022-08-25T10:32:42.115Z,20.29
2022-08-25T10:35:13.546Z,19.04
2022-08-25T10:37:58.985Z,19.56
2022-08-25T10:40:38.904Z,22.54
2022-08-25T10:43:12.263Z,24.08
2022-08-25T10:45:47.864Z,24.96
2022-08-25T10:48:18.543Z,24.08
2022-08-25T10:51:34.430Z,25.68
2022-08-25T10:54:25.950Z,27.79
2022-08-25T10:57:08.950Z,28.74
2022-08-25T10:59:53.004Z,33.29
2022-08-25T11:02:36.121Z,31.56
2022-08-25T11:05:12.475Z,32.97
2022-08-25T11:07:45.732Z,34.36
2022-08-25T11:10:19.141Z,36.55
2022-08-25T11:12:57.410Z,35.87
2022-08-25T11:15:29.102Z,36.07
2022-08-25T11:18:14.692Z,34.85
2022-08-25T11:20:44.278Z,34.59
2022-08-25T11:23:19.344Z,35.26
2022-08-25T11:25:56.001Z,35.37
2022-08-25T11:28:39.417Z,34.15
2022-08-25T11:31:08.795Z,34.04
2022-08-25T11:33:36.990Z,34.55
2022-08-25T11:36:29.481Z,35.84
2022-08-25T11:39:21.744Z,36.20
2022-08-25T11:42:01.433Z,36.81
2022-08-25T11:44:53.595Z,35.72
2022-08-25T11:47:39.264Z,35.78
2022-08-25T11:50:32.225Z,36.64
2022-08-25T11:53:23.618Z,36.16
2022-08-25T11:55:56.159Z,36.07
2022-08-25T11:58:49.881Z,36.14
2022-08-25T12:01:40.300Z,37.15
2022-08-25T12:04:33.760Z,35.73
2022-08-25T12:07:15.600Z,35.43
2022-08-25T12:09:49.933Z,35.44
2022-08-25T12:12:32.256Z,35.70
2022-08-25T12:15:46.876Z,36.43
2022-08-25T12:18:22.706Z,35.83
2022-08-25T12:20:53.613Z,36.03
2022-08-25T12:23:45.346Z,35.00
2022-08-25T12:26:23.370Z,35.07
2022-08-25T12:29:08.913Z,35.12
2022-08-25T12:31:47.736Z,35.66
2022-08-25T12:34:36.504Z,35.96
2022-08-25T12:37:06.191Z,34.44
2022-08-25T12:39:35.948Z,35.79
2022-08-25T12:42:05.319Z,38.49
2022-08-25T12:44:44.116Z,38.90
2022-08-25T12:47:25.771Z,39.71
2022-08-25T12:49:54.739Z,40.95
2022-08-25T12:52:27.793Z,38.78
2022-08-25T12:54:57.901Z,37.85
2022-08-25T12:57:29.529Z,37.38
2022-08-25T13:00:00.000Z,37.00
2022-08-25T13:02:51.555Z,36.31
2022-08-25T13:05:41.066Z,36.01
2022-08-25T13:08:27.430Z,35.38
2022-08-25T13:11:20.343Z,36.09
2022-08-25T13:14:15.392Z,36.92
2022-08-25T13:16:58.815Z,37.08
2022-08-25T13:19:27.312Z,39.13
2022-08-25T13:22:13.877Z,38.24
2022-08-25T13:24:45.059Z,40.56
2022-08-25T13:27:24.522Z,39.78
2022-08-25T13:29:55.902Z,39.62
2022-08-25T13:32:34.492Z,39.74
2022-08-25T13:35:20.105Z,38.98
2022-08-25T13:37:48.306Z,41.52
2022-08-25T13:40:26.985Z,40.69
2022-08-25T13:43:03.792Z,39.54
2022-08-25T13:45:41.325Z,38.87
2022-08-25T13:48:21.252Z,38.81
2022-08-25T13:50:51.857Z,39.63
2022-08-25T13:53:25.150Z,38.06
2022-08-25T13:55:54.882Z,37.87
2022-08-25T13:58:44.530Z,37.81
2022-08-25T14:01:25.700Z,37.75
2022-08-25T14:04:40.696Z,37.08
2022-08-25T14:07:22.458Z,37.95
2022-08-25T14:09:51.764Z,37.19
2022-08-25T14:12:44.675Z,37.73
2022-08-25T14:15:19.952Z,37.07
2022-08-25T14:18:04.861Z,38.60
2022-08-25T14:20:33.372Z,39.63
2022-08-25T14:23:07.884Z,38.82
2022-08-25T14:25:40.694Z,39.19
2022-08-25T14:28:13.617Z,39.64
2022-08-25T14:30:52.591Z,40.42
2022-08-25T14:33:23.821Z,40.99
2022-08-25T14:35:53.729Z,39.01
2022-08-25T14:38:21.418Z,40.65
2022-08-25T14:40:50.249Z,41.94
2022-08-25T14:43:18.136Z,42.00
2022-08-25T14:45:51.371Z,42.61
2022-08-25T14:48:28.233Z,42.63
2022-08-25T14:50:56.138Z,42.98
2022-08-25T14:53:24.730Z,42.72
2022-08-25T14:55:58.772Z,42.58
2022-08-25T14:58:27.884Z,42.70
2022-08-25T15:01:01.812Z,41.58
2022-08-25T15:03:32.634Z,42.35
2022-08-25T15:06:00.549Z,43.05
2022-08-25T15:08:47.390Z,43.23
2022-08-25T15:11:15.124Z,42.12
2022-08-25T15:13:49.147Z,41.95
2022-08-25T15:16:45.899Z,42.39
2022-08-25T15:19:15.643Z,44.01
2022-08-25T15:21:44.266Z,42.34
2022-08-25T15:24:11.905Z,43.55
2022-08-25T15:26:44.066Z,42.98
2022-08-25T15:29:12.267Z,43.34
2022-08-25T15:31:39.956Z,43.59
2022-08-25T15:34:11.587Z,44.46
2022-08-25T15:36:39.654Z,43.91
2022-08-25T15:39:09.104Z,45.36
2022-08-25T15:41:37.859Z,43.70
2022-08-25T15:44:06.632Z,42.91
2022-08-25T15:46:35.507Z,43.99
2022-08-25T15:49:02.884Z,44.41
2022-08-25T15:51:30.608Z,44.50
2022-08-25T15:53:58.010Z,45.61
2022-08-25T15:56:26.531Z,44.96
2022-08-25T15:58:55.443Z,45.73
2022-08-25T16:01:24.786Z,45.91
2022-08-25T16:03:53.182Z,45.45
2022-08-25T16:06:20.562Z,45.70
2022-08-25T16:08:48.263Z,45.77
2022-08-25T16:11:24.440Z,45.55
2022-08-25T16:13:52.317Z,46.22
2022-08-25T16:16:21.002Z,45.32
2022-08-25T16:18:48.386Z,44.87
2022-08-25T16:21:19.523Z,44.72
2022-08-25T16:23:48.821Z,46.28
2022-08-25T16:26:16.562Z,46.41
2022-08-25T16:28:45.008Z,45.46
2022-08-25T16:31:13.456Z,46.19
2022-08-25T16:36:10.334Z,47.15
2022-08-25T16:38:38.668Z,46.54
2022-08-25T16:41:09.804Z,46.75
2022-08-25T16:43:37.261Z,46.80
2022-08-25T16:46:08.605Z,46.56
2022-08-25T16:48:38.005Z,47.07
2022-08-25T16:51:14.039Z,48.00
2022-08-25T16:54:00.306Z,47.26
2022-08-25T16:56:29.832Z,48.09
2022-08-25T16:58:59.413Z,48.17
2022-08-25T17:01:27.086Z,49.22
2022-08-25T17:03:56.577Z,47.39
2022-08-25T17:06:25.180Z,47.36
2022-08-25T17:08:52.768Z,48.36
2022-08-25T17:11:22.529Z,47.86
2022-08-25T17:13:52.016Z,48.60
2022-08-25T17:16:21.160Z,47.95
2022-08-25T17:18:48.748Z,47.22
2022-08-25T17:21:24.595Z,47.39
2022-08-25T17:23:53.820Z,48.54
2022-08-25T17:26:27.518Z,49.20
2022-08-25T17:28:59.955Z,47.31
2022-08-25T17:31:27.648Z,48.00
2022-08-25T17:33:55.833Z,46.80
2022-08-25T17:36:27.170Z,47.22
2022-08-25T17:38:57.058Z,47.09
2022-08-25T17:41:25.069Z,47.89
2022-08-25T17:43:52.433Z,47.44
2022-08-25T17:46:21.117Z,47.94
2022-08-25T17:48:48.807Z,48.69
2022-08-25T17:51:16.365Z,49.53
2022-08-25T17:53:43.899Z,50.26
2022-08-25T17:56:16.148Z,50.24
2022-08-25T17:58:44.504Z,49.86
2022-08-25T18:01:17.139Z,50.75
2022-08-25T18:03:44.840Z,51.17
2022-08-25T18:06:15.138Z,51.49
2022-08-25T18:08:43.858Z,51.20
2022-08-25T18:11:11.631Z,50.89
2022-08-25T18:13:39.097Z,51.77
2022-08-25T18:16:07.606Z,52.23
2022-08-25T18:18:37.347Z,52.21
2022-08-25T18:21:05.401Z,52.39
2022-08-25T18:23:34.281Z,52.25
2022-08-25T18:26:02.534Z,53.07
2022-08-25T18:28:30.307Z,53.99
2022-08-25T18:30:57.755Z,54.17
2022-08-25T18:33:25.665Z,54.23
2022-08-25T18:35:57.753Z,53.89
2022-08-25T18:38:44.312Z,54.29
2022-08-25T18:41:13.573Z,53.42
2022-08-25T18:43:42.044Z,53.61
2022-08-25T18:46:09.990Z,54.88
2022-08-25T18:48:37.460Z,55.04
2022-08-25T18:51:06.272Z,54.16
2022-08-25T18:53:37.615Z,54.46
2022-08-25T18:56:18.732Z,54.94
2022-08-25T18:58:47.206Z,55.65
2022-08-25T19:01:18.319Z,55.20
2022-08-25T19:03:46.150Z,55.34
2022-08-25T19:06:13.784Z,57.21
2022-08-25T19:08:41.791Z,56.97
2022-08-25T19:11:10.045Z,56.43
2022-08-25T19:13:38.481Z,56.83
2022-08-25T19:16:17.723Z,56.08
2022-08-25T19:18:48.731Z,56.43
2022-08-25T19:21:17.264Z,56.39
2022-08-25T19:23:50.935Z,55.67
2022-08-25T19:26:19.779Z,55.98
2022-08-25T19:28:48.842Z,55.98
2022-08-25T19:31:18.654Z,56.75
2022-08-25T19:33:48.029Z,56.43
2022-08-25T19:36:15.834Z,55.85
2022-08-25T19:38:44.435Z,58.63
2022-08-25T19:41:14.634Z,58.22
2022-08-25T19:43:54.991Z,57.34
2022-08-25T19:46:35.802Z,57.90
2022-08-25T19:49:07.928Z,56.99
2022-08-25T19:51:44.116Z,56.25
2022-08-25T19:54:17.438Z,56.23
2022-08-25T19:56:54.885Z,56.44
2022-08-25T19:59:25.389Z,57.16
2022-08-25T20:01:54.559Z,56.78
2022-08-25T20:04:24.118Z,56.41
2022-08-25T20:06:55.311Z,56.30
2022-08-25T20:09:38.100Z,56.92
2022-08-25T20:12:09.307Z,56.67
2022-08-25T20:14:37.226Z,56.97
2022-08-25T20:17:14.830Z,57.56
2022-08-25T20:19:54.210Z,57.93
2022-08-25T20:22:25.510Z,57.39
2022-08-25T20:24:58.607Z,57.68
2022-08-25T20:27:31.966Z,58.39
2022-08-25T20:29:59.927Z,58.01
2022-08-25T20:32:32.158Z,57.87
2022-08-25T20:35:00.692Z,57.01
2022-08-25T20:37:28.060Z,58.48
2022-08-25T20:39:55.813Z,59.42
2022-08-25T20:42:23.506Z,59.94
2022-08-25T20:44:51.582Z,59.06
2022-08-25T20:47:21.073Z,59.33
2022-08-25T20:49:49.452Z,59.12
2022-08-25T20:52:18.550Z,59.42
2022-08-25T20:54:50.547Z,59.15
2022-08-25T20:57:25.823Z,58.62
2022-08-25T20:59:54.306Z,58.77
2022-08-25T21:02:23.098Z,58.93
2022-08-25T21:04:50.700Z,59.34
2022-08-25T21:07:18.777Z,59.47
2022-08-25T21:09:46.535Z,59.00
2022-08-25T21:12:14.822Z,58.77
2022-08-25T21:14:42.447Z,58.77
2022-08-25T21:17:13.643Z,58.32
2022-08-25T21:19:41.847Z,57.84
2022-08-25T21:22:10.847Z,57.57
2022-08-25T21:24:38.602Z,58.80
2022-08-25T21:27:06.146Z,61.39
2022-08-25T21:29:34.000Z,61.63
2022-08-25T21:32:01.564Z,60.08
2022-08-25T21:34:29.375Z,59.71
2022-08-25T21:36:57.972Z,59.34
2022-08-25T21:39:31.928Z,59.71
2022-08-25T21:42:00.399Z,59.00
2022-08-25T21:44:28.666Z,58.29
2022-08-25T21:46:56.245Z,58.83
2022-08-25T21:49:24.265Z,60.04
2022-08-25T21:52:00.396Z,59.71
2022-08-25T21:54:28.887Z,59.74
2022-08-25T21:56:59.520Z,59.43
2022-08-25T21:59:35.396Z,59.64
2022-08-25T22:02:04.046Z,59.61
2022-08-25T22:04:31.821Z,58.82
2022-08-25T22:06:59.315Z,59.14
2022-08-25T22:09:28.246Z,58.81
2022-08-25T22:11:56.299Z,58.77
2022-08-25T22:14:24.082Z,59.27
2022-08-25T22:16:54.383Z,60.43
2022-08-25T22:19:22.769Z,59.03
2022-08-25T22:21:50.828Z,59.08
2022-08-25T22:24:18.754Z,58.68
2022-08-25T22:26:48.481Z,58.70
2022-08-25T22:29:25.499Z,58.58
2022-08-25T22:31:59.592Z,58.86
2022-08-25T22:34:34.247Z,58.59
2022-08-25T22:37:03.641Z,58.97
2022-08-25T22:39:31.435Z,59.55
2022-08-25T22:41:59.845Z,59.89
2022-08-25T22:44:27.553Z,60.29
2022-08-25T22:46:55.116Z,59.74
2022-08-25T22:49:22.519Z,60.04
2022-08-25T22:51:50.145Z,60.01
2022-08-25T22:54:18.296Z,60.14
2022-08-25T22:56:45.809Z,60.32
2022-08-25T22:59:13.653Z,59.68
2022-08-25T23:01:41.154Z,59.86
2022-08-25T23:04:08.540Z,60.38
2022-08-25T23:06:38.343Z,60.53
2022-08-25T23:09:06.409Z,60.71
2022-08-25T23:11:33.932Z,60.24
2022-08-25T23:14:02.232Z,60.16
2022-08-25T23:16:31.550Z,60.62
2022-08-25T23:18:59.425Z,60.90
2022-08-25T23:21:46.058Z,60.95
2022-08-25T23:24:14.432Z,60.94
2022-08-25T23:27:01.143Z,60.85
2022-08-25T23:29:29.698Z,61.49
2022-08-25T23:31:58.097Z,61.61
2022-08-25T23:34:25.800Z,62.22
2022-08-25T23:36:53.171Z,61.74
2022-08-25T23:39:21.908Z,61.66
2022-08-25T23:41:50.161Z,61.53
2022-08-25T23:44:18.675Z,62.31
2022-08-25T23:46:47.171Z,62.57
2022-08-25T23:49:18.588Z,61.88
2022-08-25T23:51:47.624Z,63.16
2022-08-25T23:54:16.237Z,63.06
2022-08-25T23:56:52.058Z,63.40
2022-08-25T23:59:24.446Z,63.39
